KIIB

Details ICAO KIIB
Name INDEPENDENCE MUNI
Region United States
Timezone America/Chicago (UTC-5.0)
Plans Departing 1
Arriving 0
Stats Elevation 978 ft / 298 m (AMSL)
Location 42.453589° -91.947620°
Runways 1
Magnetic Variation 0.615° W
Sunrise 2018-05-24 10:39:34 UTC / 2018-05-24 05:39:34 Local
Sunset 2018-05-25 01:32:36 UTC / 2018-05-24 20:32:36 Local
Advertisement - Login to hide

Runways

ID Width Length Bearing (true) Bearing (mag) Surface Threshold Offset Overrun Length
17 75 ft / 23 m 4,005 ft / 1,221 m 179.44° 180.05° Concrete 0 ft / 0 m 0 ft / 0 m
35 75 ft / 23 m 4,005 ft / 1,221 m 359.44° 0.05° Concrete 0 ft / 0 m 0 ft / 0 m

Map

Weather


0- 5 10 15 20 25 30 35+ Temperature / ° C

Clouds and Precipitation
Forecast for 2018-05-25 00:00 UTC. Updated an hour ago

Ground ~20,000 ft ~40,000 ft Winds

METAR

KIIB 250015Z AUTO 19015KT 10SM CLR 30/17 A2997 RMK AO2 T02950166

TAF

Not found

Frequencies

Recorded 118.27 MHz AWOS 3
Approach 118.90 MHz WATERLOO APP/DEP
Unicom 122.80 MHz CTAF/UNICOM
Warning: Do not use this data for real-world aviation or navigation. No guarantee of current accuracy is given.